createdAt,value
2018-06-18T00:02:13.366Z,78.08
2018-06-18T00:04:42.451Z,78.62
2018-06-18T00:07:11.560Z,78.37
2018-06-18T00:09:40.658Z,78.56
2018-06-18T00:12:13.131Z,78.34
2018-06-18T00:14:42.071Z,78.51
2018-06-18T00:17:11.131Z,78.23
2018-06-18T00:19:40.198Z,78.66
2018-06-18T00:22:18.033Z,78.21
2018-06-18T00:24:48.667Z,78.15
2018-06-18T00:27:18.084Z,78.08
2018-06-18T00:29:47.129Z,78.16
2018-06-18T00:32:16.340Z,78.44
2018-06-18T00:34:45.435Z,78.16
2018-06-18T00:37:14.470Z,78.06
2018-06-18T00:39:43.607Z,77.94
2018-06-18T00:42:12.533Z,77.87
2018-06-18T00:44:41.453Z,77.96
2018-06-18T00:47:10.507Z,78.00
2018-06-18T00:49:39.575Z,78.37
2018-06-18T00:52:12.067Z,78.04
2018-06-18T00:54:41.159Z,78.33
2018-06-18T00:57:10.106Z,78.37
2018-06-18T00:59:39.130Z,78.39
2018-06-18T01:02:11.972Z,77.79
2018-06-18T01:04:40.886Z,77.39
2018-06-18T01:07:10.326Z,77.49
2018-06-18T01:09:39.407Z,77.00
2018-06-18T01:12:11.496Z,77.40
2018-06-18T01:14:40.576Z,76.72
2018-06-18T01:17:09.512Z,77.27
2018-06-18T01:19:38.575Z,77.20
2018-06-18T01:22:10.635Z,77.02
2018-06-18T01:25:02.238Z,76.83
2018-06-18T01:27:31.471Z,76.91
2018-06-18T01:30:00.403Z,76.79
2018-06-18T01:32:29.654Z,76.82
2018-06-18T01:34:58.600Z,76.88
2018-06-18T01:37:27.909Z,76.56
2018-06-18T01:39:58.154Z,76.99
2018-06-18T01:42:27.362Z,76.77
2018-06-18T01:44:56.285Z,76.67
2018-06-18T01:47:25.318Z,76.29
2018-06-18T01:49:54.839Z,76.35
2018-06-18T01:52:23.752Z,77.05
2018-06-18T01:54:53.274Z,76.86
2018-06-18T01:57:22.319Z,77.00
2018-06-18T01:59:51.299Z,76.94
2018-06-18T02:02:20.302Z,76.72
2018-06-18T02:04:49.249Z,76.78
2018-06-18T02:07:18.722Z,76.88
2018-06-18T02:09:47.847Z,76.63
2018-06-18T02:12:18.127Z,76.37
2018-06-18T02:14:47.363Z,76.45
2018-06-18T02:17:16.436Z,76.81
2018-06-18T02:19:45.543Z,76.23
2018-06-18T02:22:15.064Z,76.44
2018-06-18T02:24:44.226Z,76.80
2018-06-18T02:27:17.626Z,76.67
2018-06-18T02:29:52.459Z,76.92
2018-06-18T02:32:27.119Z,76.84
2018-06-18T02:35:01.381Z,76.90
2018-06-18T02:37:35.844Z,76.42
2018-06-18T02:40:10.245Z,76.38
2018-06-18T02:42:40.140Z,76.77
2018-06-18T02:45:09.260Z,76.41
2018-06-18T02:47:38.344Z,76.46
2018-06-18T02:50:07.516Z,76.42
2018-06-18T02:52:36.758Z,76.62
2018-06-18T02:55:06.792Z,76.86
2018-06-18T02:57:36.255Z,77.07
2018-06-18T03:00:05.676Z,76.97
2018-06-18T03:02:34.631Z,76.82
2018-06-18T03:05:03.697Z,77.10
2018-06-18T03:07:32.740Z,77.16
2018-06-18T03:10:01.846Z,76.86
2018-06-18T03:12:31.174Z,76.93
2018-06-18T03:15:00.447Z,76.82
2018-06-18T03:17:29.535Z,76.82
2018-06-18T03:20:03.771Z,77.10
2018-06-18T03:22:38.175Z,77.23
2018-06-18T03:25:12.642Z,76.77
2018-06-18T03:27:47.610Z,77.08
2018-06-18T03:30:16.562Z,77.35
2018-06-18T03:32:45.918Z,77.44
2018-06-18T03:35:14.863Z,76.90
2018-06-18T03:37:43.916Z,77.31
2018-06-18T03:40:13.021Z,77.30
2018-06-18T03:42:42.959Z,77.29
2018-06-18T03:45:22.427Z,77.27
2018-06-18T03:47:51.868Z,76.77
2018-06-18T03:50:20.970Z,76.65
2018-06-18T03:52:50.282Z,76.24
2018-06-18T03:55:27.242Z,76.60
2018-06-18T03:57:57.166Z,76.15
2018-06-18T04:00:29.784Z,76.48
2018-06-18T04:03:04.557Z,76.17
2018-06-18T04:05:38.767Z,75.83
2018-06-18T04:08:10.742Z,75.88
2018-06-18T04:10:45.301Z,75.75
2018-06-18T04:13:14.356Z,76.23
2018-06-18T04:15:43.473Z,76.26
2018-06-18T04:18:12.553Z,75.53
2018-06-18T04:20:45.757Z,76.05
2018-06-18T04:23:14.934Z,75.88
2018-06-18T04:25:44.101Z,75.56
2018-06-18T04:28:13.327Z,75.83
2018-06-18T04:30:44.266Z,76.04
2018-06-18T04:33:15.176Z,76.27
2018-06-18T04:35:44.423Z,76.30
2018-06-18T04:38:13.507Z,76.58
2018-06-18T04:40:42.479Z,76.25
2018-06-18T04:43:16.839Z,76.04
2018-06-18T04:45:50.063Z,75.82
2018-06-18T04:48:24.439Z,76.31
2018-06-18T04:50:56.611Z,76.11
2018-06-18T04:53:25.805Z,75.81
2018-06-18T04:55:55.167Z,76.62
2018-06-18T04:58:24.611Z,76.43
2018-06-18T05:01:28.919Z,76.67
2018-06-18T05:03:58.123Z,76.80
2018-06-18T05:06:29.249Z,76.92
2018-06-18T05:09:16.913Z,76.81
2018-06-18T05:11:46.087Z,77.17
2018-06-18T05:14:15.263Z,77.19
2018-06-18T05:16:44.414Z,76.97
2018-06-18T05:19:13.459Z,76.79
2018-06-18T05:21:43.024Z,77.25
2018-06-18T05:24:12.107Z,77.33
2018-06-18T05:26:44.860Z,77.05
2018-06-18T05:29:13.952Z,77.15
2018-06-18T05:31:43.048Z,77.10
2018-06-18T05:34:14.291Z,76.82
2018-06-18T05:36:43.323Z,76.59
2018-06-18T05:39:12.281Z,76.62
2018-06-18T05:41:41.218Z,76.53
2018-06-18T05:44:10.247Z,75.81
2018-06-18T05:46:39.379Z,76.40
2018-06-18T05:49:08.460Z,75.60
2018-06-18T05:51:37.600Z,76.23
2018-06-18T05:54:06.627Z,76.10
2018-06-18T05:56:35.562Z,75.84
2018-06-18T05:59:04.642Z,76.44
2018-06-18T06:01:33.735Z,75.88
2018-06-18T06:04:02.731Z,76.18
2018-06-18T06:06:31.675Z,75.99
2018-06-18T06:09:00.919Z,75.98
2018-06-18T06:11:30.350Z,75.70
2018-06-18T06:13:59.296Z,75.88
2018-06-18T06:16:28.515Z,75.39
2018-06-18T06:18:57.603Z,75.70
2018-06-18T06:21:26.559Z,75.68
2018-06-18T06:23:56.072Z,75.96
2018-06-18T06:26:25.247Z,75.69
2018-06-18T06:28:54.487Z,75.93
2018-06-18T06:31:23.787Z,75.94
2018-06-18T06:33:52.678Z,75.71
2018-06-18T06:36:24.535Z,75.55
2018-06-18T06:38:53.767Z,75.60
2018-06-18T06:41:23.714Z,75.85
2018-06-18T06:43:52.958Z,75.47
2018-06-18T06:46:22.166Z,75.60
2018-06-18T06:48:51.405Z,75.51
2018-06-18T06:51:20.479Z,75.69
2018-06-18T06:53:49.547Z,76.20
2018-06-18T06:56:18.650Z,75.30
2018-06-18T06:58:48.423Z,75.43
2018-06-18T07:01:18.359Z,75.10
2018-06-18T07:03:48.061Z,74.80
2018-06-18T07:06:17.208Z,74.58
2018-06-18T07:08:46.262Z,74.00
2018-06-18T07:11:15.207Z,74.44
2018-06-18T07:13:44.795Z,73.76
2018-06-18T07:16:14.073Z,74.03
2018-06-18T07:18:43.001Z,73.26
2018-06-18T07:21:12.911Z,72.11
2018-06-18T07:23:42.207Z,72.93
2018-06-18T07:26:11.412Z,73.16
2018-06-18T07:28:40.496Z,73.81
2018-06-18T07:31:10.005Z,74.42
2018-06-18T07:33:39.278Z,74.00
2018-06-18T07:36:08.342Z,75.06
2018-06-18T07:38:37.534Z,74.62
2018-06-18T07:41:06.551Z,74.78
2018-06-18T07:43:35.654Z,74.63
2018-06-18T07:46:05.031Z,74.47
2018-06-18T07:48:34.231Z,75.11
2018-06-18T07:51:03.342Z,75.58
2018-06-18T07:53:32.598Z,74.30
2018-06-18T07:56:01.862Z,73.97
2018-06-18T07:58:30.833Z,75.18
2018-06-18T08:01:00.078Z,75.27
2018-06-18T08:03:29.295Z,73.61
2018-06-18T08:05:58.394Z,74.45
2018-06-18T08:08:27.646Z,75.05
2018-06-18T08:10:57.366Z,73.32
2018-06-18T08:13:26.535Z,73.29
2018-06-18T08:15:55.615Z,74.59
2018-06-18T08:18:24.715Z,72.59
2018-06-18T08:20:53.799Z,73.53
2018-06-18T08:23:22.743Z,73.37
2018-06-18T08:25:51.805Z,73.57
2018-06-18T08:28:20.785Z,73.08
2018-06-18T08:30:50.192Z,72.56
2018-06-18T08:33:19.299Z,72.67
2018-06-18T08:35:48.414Z,71.48
2018-06-18T08:38:18.115Z,71.96
2018-06-18T08:40:47.186Z,70.94
2018-06-18T08:43:16.403Z,72.54
2018-06-18T08:45:46.160Z,71.94
2018-06-18T08:49:23.911Z,71.23
2018-06-18T08:51:58.292Z,71.40
2018-06-18T08:54:32.571Z,70.90
2018-06-18T08:57:06.676Z,71.09
2018-06-18T09:01:47.623Z,70.64
2018-06-18T09:04:16.912Z,69.47
2018-06-18T09:06:47.068Z,67.12
2018-06-18T09:09:16.335Z,68.08
2018-06-18T09:11:45.345Z,68.13
2018-06-18T09:14:14.460Z,68.80
2018-06-18T09:16:43.540Z,68.68
2018-06-18T09:19:12.503Z,68.70
2018-06-18T09:21:41.533Z,68.25
2018-06-18T09:24:10.693Z,68.70
2018-06-18T09:26:40.148Z,68.29
2018-06-18T09:29:09.234Z,70.10
2018-06-18T09:31:42.882Z,69.13
2018-06-18T09:34:11.843Z,69.99
2018-06-18T09:36:41.127Z,70.21
2018-06-18T09:39:10.634Z,69.38
2018-06-18T09:41:39.539Z,70.22
2018-06-18T09:44:08.759Z,70.48
2018-06-18T09:46:38.453Z,69.08
2018-06-18T09:49:13.467Z,69.77
2018-06-18T09:53:51.287Z,68.66
2018-06-18T09:56:25.763Z,65.95
2018-06-18T09:59:00.083Z,65.39
2018-06-18T10:01:33.337Z,65.86
2018-06-18T10:04:04.719Z,67.17
2018-06-18T10:06:35.989Z,66.56
2018-06-18T10:09:10.223Z,65.97
2018-06-18T10:11:39.706Z,66.50
2018-06-18T10:14:10.564Z,67.87
2018-06-18T10:16:40.266Z,68.25
2018-06-18T10:19:09.271Z,68.08
2018-06-18T10:21:38.652Z,68.62
2018-06-18T10:24:07.783Z,68.82
2018-06-18T10:26:36.700Z,68.53
2018-06-18T10:29:06.098Z,68.73
2018-06-18T10:31:35.035Z,69.20
2018-06-18T10:34:09.367Z,68.31
2018-06-18T10:36:43.614Z,68.65
2018-06-18T10:39:18.066Z,69.29
2018-06-18T10:41:52.425Z,68.73
2018-06-18T10:44:21.618Z,68.90
2018-06-18T10:46:50.558Z,68.11
2018-06-18T10:49:19.677Z,68.14
2018-06-18T10:51:48.893Z,67.88
2018-06-18T10:54:18.061Z,68.41
2018-06-18T10:56:47.136Z,67.08
2018-06-18T10:59:16.197Z,67.22
2018-06-18T11:01:45.794Z,66.53
2018-06-18T11:04:19.970Z,65.41
2018-06-18T11:06:49.089Z,65.30
2018-06-18T11:09:18.257Z,64.02
2018-06-18T11:11:47.299Z,65.60
2018-06-18T11:14:16.487Z,64.58
2018-06-18T11:16:50.484Z,62.72
2018-06-18T11:19:24.507Z,63.22
2018-06-18T11:21:58.670Z,62.91
2018-06-18T11:24:34.228Z,63.96
2018-06-18T11:27:03.386Z,63.34
2018-06-18T11:29:32.587Z,62.53
2018-06-18T11:32:02.504Z,63.19
2018-06-18T11:34:31.587Z,63.80
2018-06-18T11:37:00.674Z,62.78
2018-06-18T11:39:30.829Z,63.54
2018-06-18T11:41:59.938Z,63.86
2018-06-18T11:44:29.260Z,62.40
2018-06-18T11:46:58.904Z,62.24
2018-06-18T11:49:28.195Z,63.50
2018-06-18T11:51:57.310Z,63.06
2018-06-18T11:54:26.498Z,63.12
2018-06-18T11:56:55.536Z,62.65
2018-06-18T11:59:29.666Z,62.72
2018-06-18T12:04:10.510Z,62.92
2018-06-18T12:06:44.927Z,64.08
2018-06-18T12:09:19.430Z,64.12
2018-06-18T12:11:49.307Z,64.51
2018-06-18T12:14:18.435Z,63.38
2018-06-18T12:16:47.442Z,63.71
2018-06-18T12:19:16.318Z,64.08
2018-06-18T12:21:45.629Z,64.85
2018-06-18T12:24:15.323Z,65.29
2018-06-18T12:26:44.882Z,65.46
2018-06-18T12:29:14.134Z,65.76
2018-06-18T12:31:43.064Z,66.27
2018-06-18T12:34:12.938Z,66.83
2018-06-18T12:36:42.291Z,66.69
2018-06-18T12:39:12.093Z,65.94
2018-06-18T12:41:47.452Z,66.35
2018-06-18T12:44:18.718Z,65.56
2018-06-18T12:46:53.690Z,65.11
2018-06-18T12:49:28.818Z,65.87
2018-06-18T12:52:03.818Z,64.90
2018-06-18T12:54:43.738Z,66.37
2018-06-18T12:57:12.787Z,66.86
2018-06-18T12:59:41.995Z,66.59
2018-06-18T13:02:20.399Z,67.68
2018-06-18T13:04:52.746Z,67.42
2018-06-18T13:07:22.552Z,67.01
2018-06-18T13:09:51.858Z,66.84
2018-06-18T13:12:20.980Z,66.85
2018-06-18T13:14:50.167Z,67.87
2018-06-18T13:17:19.387Z,67.40
2018-06-18T13:19:48.459Z,67.98
2018-06-18T13:22:17.599Z,67.98
2018-06-18T13:24:46.864Z,67.30
2018-06-18T13:27:15.980Z,67.01
2018-06-18T13:29:45.063Z,66.72
2018-06-18T13:32:14.937Z,67.53
2018-06-18T13:34:43.949Z,68.30
2018-06-18T13:37:18.292Z,70.24
2018-06-18T13:39:52.700Z,70.74
2018-06-18T13:42:27.084Z,70.92
2018-06-18T13:45:01.464Z,71.31
2018-06-18T13:47:35.831Z,71.30
2018-06-18T13:50:05.193Z,70.91
2018-06-18T13:52:34.242Z,72.61
2018-06-18T13:55:03.395Z,72.60
2018-06-18T13:57:32.455Z,75.06
2018-06-18T14:00:01.544Z,74.86
2018-06-18T14:02:30.543Z,73.83
2018-06-18T14:04:59.481Z,74.22
2018-06-18T14:07:28.738Z,74.68
2018-06-18T14:09:57.818Z,74.76
2018-06-18T14:12:27.026Z,73.93
2018-06-18T14:14:57.129Z,74.74
2018-06-18T14:17:26.267Z,74.54
2018-06-18T14:20:00.500Z,76.13
2018-06-18T14:22:30.441Z,76.68
2018-06-18T14:24:59.560Z,76.60
2018-06-18T14:27:28.673Z,77.36
2018-06-18T14:30:03.146Z,77.98
2018-06-18T14:32:37.527Z,78.39
2018-06-18T14:35:11.943Z,77.04
2018-06-18T14:37:46.507Z,77.54
2018-06-18T14:40:17.697Z,78.20
2018-06-18T14:42:46.583Z,77.92
2018-06-18T14:45:15.695Z,77.87
2018-06-18T14:47:44.992Z,80.17
2018-06-18T14:50:14.906Z,79.77
2018-06-18T14:52:44.165Z,80.02
2018-06-18T14:55:14.662Z,80.24
2018-06-18T14:57:44.566Z,81.51
2018-06-18T15:00:28.766Z,83.19
2018-06-18T15:02:58.012Z,81.36
2018-06-18T15:05:31.931Z,81.51
2018-06-18T15:08:00.855Z,81.18
2018-06-18T15:10:36.107Z,79.96
2018-06-18T15:13:06.860Z,79.90
2018-06-18T15:15:41.965Z,80.19
2018-06-18T15:18:11.477Z,80.66
2018-06-18T15:20:41.022Z,79.42
2018-06-18T15:23:10.956Z,78.65
2018-06-18T15:25:44.071Z,78.84
2018-06-18T15:28:13.400Z,78.98
2018-06-18T15:30:42.507Z,79.31
2018-06-18T15:33:11.714Z,79.09
2018-06-18T15:35:40.782Z,78.56
2018-06-18T15:38:09.915Z,78.40
2018-06-18T15:40:39.177Z,78.67
2018-06-18T15:43:08.393Z,78.33
2018-06-18T15:45:37.320Z,78.28
2018-06-18T15:48:06.376Z,77.92
2018-06-18T15:50:35.477Z,78.49
2018-06-18T15:53:04.679Z,79.31
2018-06-18T15:55:33.776Z,78.38
2018-06-18T15:58:03.239Z,78.83
2018-06-18T16:00:32.363Z,78.47
2018-06-18T16:03:01.536Z,78.81
2018-06-18T16:05:30.964Z,78.38
2018-06-18T16:08:00.168Z,78.16
2018-06-18T16:10:29.247Z,78.06
2018-06-18T16:12:58.169Z,77.49
2018-06-18T16:15:27.100Z,77.58
2018-06-18T16:17:56.351Z,76.63
2018-06-18T16:20:25.434Z,76.02
2018-06-18T16:22:55.171Z,76.21
2018-06-18T16:25:24.435Z,75.66
2018-06-18T16:27:53.407Z,75.34
2018-06-18T16:30:22.471Z,76.02
2018-06-18T16:32:51.959Z,75.28
2018-06-18T16:35:21.796Z,74.95
2018-06-18T16:37:50.749Z,75.29
2018-06-18T16:40:19.882Z,74.01
2018-06-18T16:42:49.037Z,74.31
2018-06-18T16:45:18.578Z,75.33
2018-06-18T16:47:47.639Z,75.69
2018-06-18T16:50:17.448Z,76.02
2018-06-18T16:52:46.548Z,75.59
2018-06-18T16:55:15.724Z,74.77
2018-06-18T16:57:44.932Z,74.48
2018-06-18T17:00:13.879Z,74.24
2018-06-18T17:02:43.190Z,75.47
2018-06-18T17:05:12.403Z,74.95
2018-06-18T17:07:41.708Z,75.25
2018-06-18T17:10:10.815Z,74.46
2018-06-18T17:12:39.896Z,74.82
2018-06-18T17:15:09.010Z,74.60
2018-06-18T17:17:38.552Z,74.72
2018-06-18T17:20:07.836Z,74.49
2018-06-18T17:22:37.375Z,74.90
2018-06-18T17:25:06.611Z,75.08
2018-06-18T17:27:36.514Z,74.18
2018-06-18T17:30:05.508Z,74.01
2018-06-18T17:32:34.932Z,73.45
2018-06-18T17:35:04.675Z,72.47
2018-06-18T17:37:33.732Z,71.59
2018-06-18T17:40:03.542Z,72.56
2018-06-18T17:42:32.652Z,71.96
2018-06-18T17:45:01.777Z,71.72
2018-06-18T17:47:30.824Z,72.33
2018-06-18T17:49:59.798Z,73.01
2018-06-18T17:52:29.162Z,73.55
2018-06-18T17:54:58.347Z,74.45
2018-06-18T17:57:27.378Z,74.02
2018-06-18T17:59:56.427Z,73.71
2018-06-18T18:02:25.461Z,74.38
2018-06-18T18:04:57.550Z,74.18
2018-06-18T18:07:27.814Z,74.10
2018-06-18T18:09:56.922Z,74.27
2018-06-18T18:12:25.912Z,75.18
2018-06-18T18:14:55.633Z,75.73
2018-06-18T18:17:25.468Z,75.96
2018-06-18T18:19:54.604Z,76.58
2018-06-18T18:22:23.648Z,76.61
2018-06-18T18:24:52.950Z,76.53
2018-06-18T18:27:22.138Z,76.60
2018-06-18T18:29:51.627Z,76.16
2018-06-18T18:32:20.924Z,76.11
2018-06-18T18:34:50.713Z,75.98
2018-06-18T18:37:19.666Z,75.42
2018-06-18T18:39:48.644Z,75.79
2018-06-18T18:42:19.095Z,75.82
2018-06-18T18:44:48.375Z,75.54
2018-06-18T18:47:18.419Z,75.44
2018-06-18T18:49:47.755Z,76.32
2018-06-18T18:52:18.451Z,75.74
2018-06-18T18:55:59.301Z,76.33
2018-06-18T18:59:33.843Z,76.52
2018-06-18T19:02:02.834Z,75.75
2018-06-18T19:04:43.435Z,76.26
2018-06-18T19:07:12.775Z,76.14
2018-06-18T19:09:49.297Z,76.76
2018-06-18T19:12:19.256Z,76.92
2018-06-18T19:14:49.415Z,76.68
2018-06-18T19:17:18.465Z,77.15
2018-06-18T19:20:01.492Z,77.34
2018-06-18T19:22:31.281Z,77.02
2018-06-18T19:25:00.932Z,77.53
2018-06-18T19:27:30.422Z,77.76
2018-06-18T19:29:59.899Z,78.31
2018-06-18T19:32:29.100Z,78.50
2018-06-18T19:34:58.051Z,78.94
2018-06-18T19:37:28.009Z,78.65
2018-06-18T19:39:56.970Z,79.33
2018-06-18T19:42:27.269Z,79.28
2018-06-18T19:44:56.196Z,79.93
2018-06-18T19:47:37.732Z,80.00
2018-06-18T19:50:06.885Z,80.79
2018-06-18T19:52:35.827Z,80.85
2018-06-18T19:55:10.142Z,80.87
2018-06-18T19:57:39.312Z,81.41
2018-06-18T20:00:08.596Z,81.02
2018-06-18T20:02:37.718Z,81.75
2018-06-18T20:05:12.793Z,81.78
2018-06-18T20:07:53.166Z,81.07
2018-06-18T20:10:23.458Z,81.63
2018-06-18T20:12:53.031Z,81.22
2018-06-18T20:15:22.596Z,81.34
2018-06-18T20:17:51.771Z,81.64
2018-06-18T20:20:21.626Z,81.85
2018-06-18T20:22:50.639Z,82.11
2018-06-18T20:25:28.146Z,82.35
2018-06-18T20:27:57.226Z,82.07
2018-06-18T20:30:26.315Z,82.49
2018-06-18T20:32:55.694Z,82.39
2018-06-18T20:35:29.294Z,81.82
2018-06-18T20:37:58.399Z,82.02
2018-06-18T20:40:28.082Z,82.65
2018-06-18T20:42:57.907Z,82.99
2018-06-18T20:45:28.042Z,82.92
2018-06-18T20:47:56.983Z,83.31
2018-06-18T20:50:26.244Z,82.31
2018-06-18T20:52:55.215Z,82.85
2018-06-18T20:55:24.442Z,83.23
2018-06-18T20:57:53.524Z,82.99
2018-06-18T21:00:22.647Z,82.83
2018-06-18T21:02:51.810Z,82.65
2018-06-18T21:05:20.743Z,83.37
2018-06-18T21:07:50.030Z,83.31
2018-06-18T21:10:18.944Z,83.77
2018-06-18T21:12:48.136Z,83.18
2018-06-18T21:15:18.288Z,83.26
2018-06-18T21:17:47.508Z,82.87
2018-06-18T21:20:16.960Z,83.52
2018-06-18T21:22:46.926Z,83.52
2018-06-18T21:25:16.016Z,83.42
2018-06-18T21:27:45.076Z,84.02
2018-06-18T21:30:14.202Z,83.99
2018-06-18T21:32:43.315Z,83.91
2018-06-18T21:35:12.402Z,83.58
2018-06-18T21:37:41.358Z,83.67
2018-06-18T21:40:10.596Z,84.17
2018-06-18T21:42:40.544Z,83.61
2018-06-18T21:45:14.337Z,84.18
2018-06-18T21:47:43.341Z,83.93
2018-06-18T21:50:12.791Z,84.74
2018-06-18T21:52:42.019Z,84.77
2018-06-18T21:55:11.119Z,84.20
2018-06-18T21:57:40.203Z,84.24
2018-06-18T22:00:14.627Z,84.34
2018-06-18T22:02:43.891Z,84.88
2018-06-18T22:05:12.925Z,84.35
2018-06-18T22:07:42.854Z,84.91
2018-06-18T22:10:12.512Z,84.27
2018-06-18T22:12:42.169Z,85.12
2018-06-18T22:15:11.955Z,85.33
2018-06-18T22:17:41.191Z,85.88
2018-06-18T22:20:10.277Z,85.83
2018-06-18T22:22:39.575Z,86.31
2018-06-18T22:25:08.895Z,85.91
2018-06-18T22:27:38.881Z,85.81
2018-06-18T22:30:08.132Z,86.26
2018-06-18T22:32:37.710Z,85.67
2018-06-18T22:35:06.692Z,85.66
2018-06-18T22:37:35.771Z,84.91
2018-06-18T22:40:04.901Z,84.94
2018-06-18T22:42:34.194Z,85.28
2018-06-18T22:45:03.518Z,84.88
2018-06-18T22:47:32.564Z,85.21
2018-06-18T22:50:01.679Z,85.47
2018-06-18T22:52:31.222Z,85.75
2018-06-18T22:55:00.496Z,86.32
2018-06-18T22:57:29.582Z,85.50
2018-06-18T22:59:58.653Z,85.35
2018-06-18T23:02:30.409Z,85.18
2018-06-18T23:04:59.874Z,85.94
2018-06-18T23:07:29.738Z,85.94
2018-06-18T23:09:59.051Z,85.41
2018-06-18T23:12:37.809Z,84.91
